createdAt,value
2018-03-29T00:02:10.145Z,12.52
2018-03-29T00:04:38.522Z,12.65
2018-03-29T00:07:06.888Z,17.55
2018-03-29T00:09:35.432Z,13.65
2018-03-29T00:12:03.895Z,18.70
2018-03-29T00:14:32.259Z,27.13
2018-03-29T00:17:00.640Z,31.08
2018-03-29T00:19:29.059Z,31.40
2018-03-29T00:21:57.444Z,50.97
2018-03-29T00:24:25.840Z,42.05
2018-03-29T00:26:54.240Z,58.00
2018-03-29T00:29:22.627Z,56.95
2018-03-29T00:31:51.001Z,55.08
2018-03-29T00:34:19.370Z,51.25
2018-03-29T00:36:47.780Z,61.97
2018-03-29T00:39:16.136Z,41.83
2018-03-29T00:41:44.615Z,36.33
2018-03-29T00:44:13.028Z,32.03
2018-03-29T00:46:41.465Z,37.83
2018-03-29T00:49:09.872Z,30.88
2018-03-29T00:51:38.253Z,37.83
2018-03-29T00:54:06.627Z,34.65
2018-03-29T00:56:34.993Z,27.00
2018-03-29T00:59:03.364Z,27.10
2018-03-29T01:01:31.771Z,24.33
2018-03-29T01:04:00.207Z,19.15
2018-03-29T01:06:28.599Z,19.98
2018-03-29T01:08:57.022Z,15.90
2018-03-29T01:11:25.420Z,14.00
2018-03-29T01:13:53.814Z,21.85
2018-03-29T01:16:22.286Z,13.60
2018-03-29T01:18:50.672Z,15.45
2018-03-29T01:21:19.080Z,14.70
2018-03-29T01:23:47.482Z,15.70
2018-03-29T01:26:15.865Z,19.27
2018-03-29T01:28:44.269Z,16.27
2018-03-29T01:31:12.682Z,16.05
2018-03-29T01:33:41.068Z,21.10
2018-03-29T01:36:09.438Z,16.23
2018-03-29T01:38:37.820Z,18.95
2018-03-29T01:41:06.195Z,19.77
2018-03-29T01:43:34.812Z,18.12
2018-03-29T01:46:03.202Z,19.85
2018-03-29T01:48:31.732Z,18.65
2018-03-29T01:51:00.131Z,16.40
2018-03-29T01:53:28.520Z,13.00
2018-03-29T01:55:56.880Z,15.20
2018-03-29T01:58:25.243Z,16.00
2018-03-29T02:00:53.728Z,15.77
2018-03-29T02:03:22.119Z,15.30
2018-03-29T02:05:50.489Z,17.12
2018-03-29T02:08:18.874Z,23.35
2018-03-29T02:10:47.229Z,19.83
2018-03-29T02:13:15.592Z,20.35
2018-03-29T02:15:43.960Z,18.73
2018-03-29T02:18:12.325Z,17.80
2018-03-29T02:20:40.690Z,28.85
2018-03-29T02:23:09.049Z,20.65
2018-03-29T02:25:37.574Z,22.62
2018-03-29T02:28:05.949Z,22.17
2018-03-29T02:30:34.305Z,18.80
2018-03-29T02:33:02.674Z,19.90
2018-03-29T02:35:31.036Z,16.37
2018-03-29T02:37:59.429Z,20.83
2018-03-29T02:40:27.788Z,17.87
2018-03-29T02:42:56.215Z,19.52
2018-03-29T02:45:24.607Z,18.60
2018-03-29T02:47:52.983Z,16.70
2018-03-29T02:50:21.398Z,17.10
2018-03-29T02:52:49.768Z,18.70
2018-03-29T02:55:18.140Z,14.65
2018-03-29T02:57:46.515Z,15.07
2018-03-29T03:00:33.692Z,14.38
2018-03-29T03:03:02.183Z,12.88
2018-03-29T03:05:30.604Z,12.85
2018-03-29T03:07:58.981Z,11.05
2018-03-29T03:10:27.484Z,12.73
2018-03-29T03:12:55.844Z,9.93
2018-03-29T03:15:24.247Z,15.07
2018-03-29T03:17:52.649Z,12.65
2018-03-29T03:20:21.035Z,13.05
2018-03-29T03:22:49.492Z,15.30
2018-03-29T03:25:17.891Z,14.52
2018-03-29T03:27:46.251Z,9.95
2018-03-29T03:30:14.640Z,12.98
2018-03-29T03:32:43.155Z,14.60
2018-03-29T03:35:11.547Z,14.30
2018-03-29T03:37:39.918Z,13.48
2018-03-29T03:40:08.332Z,16.75
2018-03-29T03:42:36.726Z,18.27
2018-03-29T03:45:05.082Z,12.43
2018-03-29T03:47:33.563Z,13.98
2018-03-29T03:50:02.009Z,12.20
2018-03-29T03:52:30.368Z,15.07
2018-03-29T03:54:58.831Z,12.40
2018-03-29T03:57:27.230Z,11.82
2018-03-29T03:59:55.626Z,13.68
2018-03-29T04:02:24.195Z,15.43
2018-03-29T04:04:52.555Z,15.93
2018-03-29T04:07:20.952Z,12.85
2018-03-29T04:09:49.328Z,12.07
2018-03-29T04:12:17.828Z,14.30
2018-03-29T04:14:46.180Z,12.10
2018-03-29T04:17:14.538Z,12.77
2018-03-29T04:19:42.973Z,12.02
2018-03-29T04:22:11.375Z,19.73
2018-03-29T04:24:39.747Z,14.18
2018-03-29T04:27:08.107Z,18.58
2018-03-29T04:29:36.488Z,12.60
2018-03-29T04:32:04.875Z,14.38
2018-03-29T04:34:33.332Z,16.30
2018-03-29T04:37:01.707Z,13.52
2018-03-29T04:39:30.196Z,14.15
2018-03-29T04:41:58.558Z,12.82
2018-03-29T04:44:26.933Z,15.65
2018-03-29T04:46:55.339Z,14.82
2018-03-29T04:49:23.711Z,12.95
2018-03-29T04:51:52.176Z,10.80
2018-03-29T04:54:20.563Z,12.45
2018-03-29T04:56:49.039Z,12.05
2018-03-29T04:59:17.419Z,11.32
2018-03-29T05:01:45.837Z,12.43
2018-03-29T05:04:14.289Z,13.52
2018-03-29T05:06:42.675Z,12.55
2018-03-29T05:09:11.051Z,7.60
2018-03-29T05:11:39.432Z,7.10
2018-03-29T05:14:07.821Z,10.50
2018-03-29T05:16:36.296Z,7.57
2018-03-29T05:19:04.685Z,8.93
2018-03-29T05:21:33.124Z,9.30
2018-03-29T05:24:01.540Z,13.30
2018-03-29T05:26:35.574Z,14.40
2018-03-29T05:29:03.946Z,10.40
2018-03-29T05:31:32.340Z,11.68
2018-03-29T05:34:00.844Z,12.05
2018-03-29T05:36:29.235Z,16.83
2018-03-29T05:38:57.617Z,16.52
2018-03-29T05:41:26.000Z,15.02
2018-03-29T05:43:54.381Z,14.18
2018-03-29T05:46:22.781Z,16.60
2018-03-29T05:48:51.206Z,19.75
2018-03-29T05:51:19.617Z,27.27
2018-03-29T05:53:48.057Z,20.75
2018-03-29T05:56:16.451Z,19.70
2018-03-29T05:58:44.851Z,23.23
2018-03-29T06:01:13.264Z,21.00
2018-03-29T06:03:41.769Z,23.87
2018-03-29T06:06:10.176Z,20.37
2018-03-29T06:08:38.687Z,22.75
2018-03-29T06:11:07.075Z,23.70
2018-03-29T06:13:35.471Z,22.00
2018-03-29T06:16:04.709Z,25.60
2018-03-29T06:18:33.136Z,24.00
2018-03-29T06:21:01.537Z,23.33
2018-03-29T06:23:30.862Z,24.10
2018-03-29T06:25:59.242Z,24.10
2018-03-29T06:28:27.604Z,25.02
2018-03-29T06:30:56.027Z,22.65
2018-03-29T06:33:24.407Z,28.17
2018-03-29T06:35:52.838Z,30.02
2018-03-29T06:38:21.241Z,26.58
2018-03-29T06:40:49.681Z,36.70
2018-03-29T06:43:18.068Z,27.98
2018-03-29T06:45:46.484Z,30.25
2018-03-29T06:48:14.868Z,27.75
2018-03-29T06:50:43.297Z,26.90
2018-03-29T06:53:11.692Z,24.20
2018-03-29T06:55:40.075Z,27.13
2018-03-29T06:58:08.617Z,26.75
2018-03-29T07:00:37.018Z,27.70
2018-03-29T07:03:05.442Z,27.27
2018-03-29T07:05:33.855Z,36.78
2018-03-29T07:08:02.277Z,30.00
2018-03-29T07:10:30.667Z,25.83
2018-03-29T07:12:59.115Z,26.10
2018-03-29T07:15:27.591Z,37.40
2018-03-29T07:17:55.981Z,31.23
2018-03-29T07:20:24.404Z,26.85
2018-03-29T07:22:52.832Z,36.33
2018-03-29T07:25:21.340Z,31.80
2018-03-29T07:27:49.755Z,30.75
2018-03-29T07:30:18.183Z,28.25
2018-03-29T07:32:46.559Z,30.88
2018-03-29T07:35:14.924Z,32.72
2018-03-29T07:37:43.426Z,28.60
2018-03-29T07:40:11.853Z,28.93
2018-03-29T07:42:40.323Z,22.70
2018-03-29T07:45:08.881Z,26.13
2018-03-29T07:47:37.456Z,24.83
2018-03-29T07:50:05.831Z,25.77
2018-03-29T07:52:34.200Z,24.00
2018-03-29T07:55:02.643Z,21.67
2018-03-29T07:57:31.045Z,25.63
2018-03-29T07:59:59.444Z,24.53
2018-03-29T08:02:27.977Z,21.50
2018-03-29T08:04:56.383Z,19.97
2018-03-29T08:07:24.923Z,19.77
2018-03-29T08:09:53.397Z,21.37
2018-03-29T08:12:21.907Z,17.30
2018-03-29T08:14:50.298Z,19.97
2018-03-29T08:17:18.723Z,19.93
2018-03-29T08:19:47.132Z,18.10
2018-03-29T08:22:15.572Z,18.73
2018-03-29T08:24:43.995Z,18.37
2018-03-29T08:27:12.479Z,19.30
2018-03-29T08:29:41.037Z,20.97
2018-03-29T08:32:09.474Z,20.93
2018-03-29T08:34:37.893Z,25.63
2018-03-29T08:37:06.936Z,26.97
2018-03-29T08:39:35.332Z,26.60
2018-03-29T08:42:03.728Z,23.97
2018-03-29T08:44:32.215Z,24.70
2018-03-29T08:47:00.709Z,17.60
2018-03-29T08:49:29.157Z,23.37
2018-03-29T08:51:57.600Z,22.40
2018-03-29T08:54:25.963Z,23.77
2018-03-29T08:56:54.342Z,25.37
2018-03-29T08:59:22.705Z,29.13
2018-03-29T09:01:51.088Z,24.87
2018-03-29T09:04:19.466Z,21.90
2018-03-29T09:06:47.917Z,27.07
2018-03-29T09:09:16.287Z,27.70
2018-03-29T09:11:44.665Z,23.43
2018-03-29T09:14:13.122Z,22.93
2018-03-29T09:16:41.536Z,22.83
2018-03-29T09:19:10.052Z,23.33
2018-03-29T09:21:38.504Z,21.03
2018-03-29T09:24:06.877Z,29.77
2018-03-29T09:26:35.378Z,17.23
2018-03-29T09:29:03.760Z,13.77
2018-03-29T09:31:32.273Z,12.27
2018-03-29T09:34:00.699Z,8.47
2018-03-29T09:36:29.203Z,7.67
2018-03-29T09:38:57.563Z,11.00
2018-03-29T09:41:25.963Z,11.03
2018-03-29T09:43:54.388Z,13.20
2018-03-29T09:46:22.761Z,16.60
2018-03-29T09:48:51.124Z,18.37
2018-03-29T09:51:19.646Z,22.40
2018-03-29T09:53:48.051Z,20.80
2018-03-29T09:56:16.531Z,23.83
2018-03-29T09:58:44.899Z,25.30
2018-03-29T10:01:13.349Z,23.87
2018-03-29T10:06:47.920Z,27.20
2018-03-29T10:09:16.737Z,29.80
2018-03-29T10:11:45.324Z,29.57
2018-03-29T10:14:13.818Z,29.37
2018-03-29T10:16:42.189Z,25.40
2018-03-29T10:19:10.681Z,28.60
2018-03-29T10:21:39.237Z,24.67
2018-03-29T10:24:07.967Z,31.97
2018-03-29T10:26:36.313Z,25.50
2018-03-29T10:29:04.761Z,25.67
2018-03-29T10:31:33.144Z,24.67
2018-03-29T10:34:01.684Z,26.70
2018-03-29T10:36:30.195Z,26.13
2018-03-29T10:38:58.609Z,23.90
2018-03-29T10:41:27.055Z,22.07
2018-03-29T10:43:55.427Z,28.63
2018-03-29T10:46:23.793Z,25.80
2018-03-29T10:48:52.316Z,23.60
2018-03-29T10:51:20.694Z,27.70
2018-03-29T10:53:49.068Z,22.03
2018-03-29T10:56:17.637Z,23.20
2018-03-29T10:58:46.020Z,24.93
2018-03-29T11:01:14.400Z,24.47
2018-03-29T11:03:42.985Z,22.80
2018-03-29T11:06:11.506Z,19.60
2018-03-29T11:08:39.923Z,17.47
2018-03-29T11:11:11.664Z,19.10
2018-03-29T11:13:40.100Z,18.90
2018-03-29T11:16:08.562Z,17.57
2018-03-29T11:18:37.020Z,13.40
2018-03-29T11:21:05.434Z,16.67
2018-03-29T11:23:33.816Z,15.77
2018-03-29T11:26:02.453Z,16.60
2018-03-29T11:28:30.843Z,17.87
2018-03-29T11:30:59.250Z,13.53
2018-03-29T11:33:27.928Z,14.40
2018-03-29T11:35:56.304Z,13.00
2018-03-29T11:38:24.756Z,15.67
2018-03-29T11:40:53.249Z,14.83
2018-03-29T11:43:21.569Z,15.83
2018-03-29T11:45:50.042Z,13.77
2018-03-29T11:48:18.524Z,13.60
2018-03-29T11:50:46.999Z,11.40
2018-03-29T11:53:15.453Z,13.40
2018-03-29T11:55:43.838Z,10.87
2018-03-29T11:58:12.240Z,10.80
2018-03-29T12:00:40.748Z,10.43
2018-03-29T12:03:09.166Z,10.50
2018-03-29T12:05:37.656Z,13.83
2018-03-29T12:08:06.156Z,9.90
2018-03-29T12:10:34.596Z,11.47
2018-03-29T12:13:03.013Z,10.07
2018-03-29T12:15:31.501Z,12.57
2018-03-29T12:17:59.904Z,10.90
2018-03-29T12:20:28.297Z,12.83
2018-03-29T12:22:56.857Z,11.67
2018-03-29T12:25:25.282Z,12.30
2018-03-29T12:27:53.648Z,11.80
2018-03-29T12:30:22.164Z,12.13
2018-03-29T12:32:50.623Z,10.97
2018-03-29T12:35:19.011Z,14.83
2018-03-29T12:37:47.436Z,15.63
2018-03-29T12:40:15.863Z,15.20
2018-03-29T12:42:44.272Z,13.20
2018-03-29T12:45:12.640Z,11.63
2018-03-29T12:47:41.427Z,14.90
2018-03-29T12:50:14.545Z,14.00
2018-03-29T12:52:43.001Z,12.40
2018-03-29T12:55:23.092Z,15.03
2018-03-29T12:57:57.944Z,15.00
2018-03-29T13:00:26.344Z,12.60
2018-03-29T13:02:54.698Z,14.80
2018-03-29T13:05:23.188Z,17.80
2018-03-29T13:07:51.554Z,15.03
2018-03-29T13:10:19.977Z,12.43
2018-03-29T13:12:48.403Z,17.17
2018-03-29T13:15:16.783Z,8.20
2018-03-29T13:17:45.218Z,7.70
2018-03-29T13:20:13.737Z,6.93
2018-03-29T13:22:42.244Z,4.63
2018-03-29T13:25:10.714Z,5.00
2018-03-29T13:27:39.228Z,7.07
2018-03-29T13:30:07.675Z,5.30
2018-03-29T13:32:36.075Z,8.10
2018-03-29T13:35:04.545Z,5.90
2018-03-29T13:37:32.934Z,6.23
2018-03-29T13:40:01.339Z,6.37
2018-03-29T13:42:29.779Z,9.43
2018-03-29T13:44:58.833Z,7.77
2018-03-29T13:47:27.485Z,6.90
2018-03-29T13:49:55.886Z,7.47
2018-03-29T13:52:24.320Z,13.37
2018-03-29T13:54:52.785Z,7.20
2018-03-29T13:57:21.172Z,10.83
2018-03-29T13:59:49.587Z,13.50
2018-03-29T14:02:18.052Z,9.87
2018-03-29T14:04:46.467Z,8.17
2018-03-29T14:07:14.843Z,10.40
2018-03-29T14:09:43.333Z,10.10
2018-03-29T14:12:11.731Z,17.60
2018-03-29T14:14:40.140Z,14.60
2018-03-29T14:17:09.311Z,8.70
2018-03-29T14:19:37.695Z,8.50
2018-03-29T14:22:06.284Z,9.30
2018-03-29T14:24:34.732Z,11.23
2018-03-29T14:27:03.237Z,8.10
2018-03-29T14:29:31.622Z,10.37
2018-03-29T14:32:00.063Z,9.90
2018-03-29T14:34:28.504Z,8.00
2018-03-29T14:36:56.950Z,7.40
2018-03-29T14:39:25.443Z,8.83
2018-03-29T14:41:53.923Z,7.10
2018-03-29T14:44:22.341Z,7.30
2018-03-29T14:46:50.825Z,6.20
2018-03-29T14:49:19.238Z,5.87
2018-03-29T14:51:47.631Z,11.03
2018-03-29T14:54:16.143Z,8.53
2018-03-29T14:56:44.516Z,7.00
2018-03-29T14:59:12.989Z,6.20
2018-03-29T15:01:41.456Z,8.90
2018-03-29T15:04:09.841Z,7.43
2018-03-29T15:06:38.231Z,6.80
2018-03-29T15:09:06.689Z,12.13
2018-03-29T15:11:35.052Z,11.67
2018-03-29T15:14:03.404Z,8.50
2018-03-29T15:16:31.813Z,9.10
2018-03-29T15:19:00.159Z,6.23
2018-03-29T15:21:28.531Z,7.43
2018-03-29T15:23:57.027Z,7.80
2018-03-29T15:26:25.434Z,7.07
2018-03-29T15:28:53.760Z,8.70
2018-03-29T15:31:22.236Z,10.80
2018-03-29T15:33:50.588Z,11.50
2018-03-29T15:36:18.968Z,10.70
2018-03-29T15:38:47.408Z,13.67
2018-03-29T15:41:15.830Z,9.60
2018-03-29T15:43:44.201Z,9.10
2018-03-29T15:46:12.659Z,12.33
2018-03-29T15:48:41.015Z,8.17
2018-03-29T15:51:09.438Z,10.87
2018-03-29T15:53:38.050Z,8.70
2018-03-29T15:56:06.434Z,9.03
2018-03-29T15:58:34.828Z,9.43
2018-03-29T16:01:03.308Z,11.10
2018-03-29T16:03:31.699Z,11.90
2018-03-29T16:06:00.103Z,10.83
2018-03-29T16:08:28.542Z,9.57
2018-03-29T16:10:56.930Z,9.00
2018-03-29T16:13:25.389Z,9.40
2018-03-29T16:15:53.943Z,15.17
2018-03-29T16:18:22.347Z,9.10
2018-03-29T16:20:50.743Z,9.50
2018-03-29T16:23:19.159Z,10.43
2018-03-29T16:25:47.583Z,12.03
2018-03-29T16:28:16.131Z,9.97
2018-03-29T16:30:44.514Z,9.80
2018-03-29T16:33:12.894Z,14.97
2018-03-29T16:35:41.828Z,8.10
2018-03-29T16:38:10.340Z,9.00
2018-03-29T16:40:38.992Z,8.70
2018-03-29T16:43:07.556Z,9.13
2018-03-29T16:45:36.049Z,10.43
2018-03-29T16:48:04.435Z,8.23
2018-03-29T16:50:32.906Z,7.60
2018-03-29T16:53:01.289Z,10.20
2018-03-29T16:55:29.775Z,10.40
2018-03-29T16:57:58.262Z,9.03
2018-03-29T17:00:26.663Z,9.87
2018-03-29T17:02:55.094Z,8.77
2018-03-29T17:05:23.528Z,12.50
2018-03-29T17:07:51.954Z,9.97
2018-03-29T17:10:20.331Z,9.00
2018-03-29T17:12:48.784Z,9.53
2018-03-29T17:15:18.215Z,9.70
2018-03-29T17:17:46.629Z,11.47
2018-03-29T17:20:15.178Z,13.23
2018-03-29T17:22:43.559Z,12.77
2018-03-29T17:25:12.050Z,10.63
2018-03-29T17:27:40.498Z,12.70
2018-03-29T17:30:08.901Z,11.20
2018-03-29T17:32:37.287Z,11.83
2018-03-29T17:35:05.808Z,11.23
2018-03-29T17:37:34.222Z,11.20
2018-03-29T17:40:03.110Z,12.80
2018-03-29T17:42:32.206Z,11.07
2018-03-29T17:45:00.575Z,10.17
2018-03-29T17:47:28.947Z,12.87
2018-03-29T17:49:57.392Z,12.67
2018-03-29T17:52:25.769Z,11.57
2018-03-29T17:54:54.174Z,9.73
2018-03-29T17:57:22.580Z,12.53
2018-03-29T17:59:51.155Z,14.45
2018-03-29T18:02:19.522Z,11.63
2018-03-29T18:04:47.883Z,15.75
2018-03-29T18:07:16.314Z,16.50
2018-03-29T18:09:45.458Z,10.80
2018-03-29T18:12:13.848Z,14.10
2018-03-29T18:14:42.300Z,16.30
2018-03-29T18:17:10.678Z,13.30
2018-03-29T18:19:39.084Z,13.98
2018-03-29T18:22:07.490Z,15.10
2018-03-29T18:24:36.051Z,14.10
2018-03-29T18:27:04.536Z,14.80
2018-03-29T18:29:32.949Z,12.73
2018-03-29T18:32:01.334Z,14.87
2018-03-29T18:34:29.796Z,19.60
2018-03-29T18:36:58.163Z,12.48
2018-03-29T18:39:26.526Z,15.85
2018-03-29T18:41:55.041Z,14.65
2018-03-29T18:44:23.405Z,13.27
2018-03-29T18:46:51.849Z,15.93
2018-03-29T18:49:20.281Z,14.45
2018-03-29T18:51:48.631Z,14.98
2018-03-29T18:54:17.095Z,17.23
2018-03-29T18:56:45.514Z,15.02
2018-03-29T18:59:13.917Z,16.75
2018-03-29T19:01:42.351Z,18.25
2018-03-29T19:04:10.707Z,15.43
2018-03-29T19:06:39.102Z,16.45
2018-03-29T19:09:07.576Z,16.92
2018-03-29T19:11:35.949Z,17.73
2018-03-29T19:14:04.352Z,19.87
2018-03-29T19:16:32.753Z,16.12
2018-03-29T19:19:01.189Z,20.27
2018-03-29T19:21:29.728Z,22.15
2018-03-29T19:23:58.140Z,19.85
2018-03-29T19:26:26.546Z,15.93
2018-03-29T19:28:54.970Z,17.92
2018-03-29T19:31:23.332Z,18.52
2018-03-29T19:33:51.856Z,14.52
2018-03-29T19:36:20.749Z,21.00
2018-03-29T19:38:49.584Z,17.80
2018-03-29T19:41:17.986Z,19.90
2018-03-29T19:43:46.446Z,18.42
2018-03-29T19:46:14.847Z,19.40
2018-03-29T19:48:43.332Z,19.08
2018-03-29T19:51:11.880Z,14.30
2018-03-29T19:53:40.988Z,19.58
2018-03-29T19:56:09.414Z,17.45
2018-03-29T19:58:37.925Z,23.15
2018-03-29T20:01:06.311Z,17.25
2018-03-29T20:03:34.729Z,18.65
2018-03-29T20:06:04.051Z,18.45
2018-03-29T20:08:32.433Z,21.90
2018-03-29T20:11:00.905Z,23.73
2018-03-29T20:13:29.304Z,17.77
2018-03-29T20:15:57.667Z,17.98
2018-03-29T20:18:26.054Z,19.70
2018-03-29T20:20:54.514Z,17.40
2018-03-29T20:23:22.951Z,22.20
2018-03-29T20:25:51.319Z,19.30
2018-03-29T20:28:19.679Z,22.40
2018-03-29T20:30:48.106Z,21.80
2018-03-29T20:33:16.469Z,22.23
2018-03-29T20:35:44.846Z,21.27
2018-03-29T20:38:13.367Z,20.02
2018-03-29T20:40:41.745Z,19.65
2018-03-29T20:43:10.142Z,18.30
2018-03-29T20:45:38.660Z,24.48
2018-03-29T20:48:07.095Z,21.75
2018-03-29T20:50:35.489Z,21.17
2018-03-29T20:53:03.923Z,22.42
2018-03-29T20:55:32.342Z,24.98
2018-03-29T20:58:00.899Z,22.27
2018-03-29T21:00:29.371Z,20.20
2018-03-29T21:02:57.759Z,25.15
2018-03-29T21:05:26.160Z,23.95
2018-03-29T21:07:54.772Z,25.17
2018-03-29T21:10:23.152Z,23.85
2018-03-29T21:12:51.555Z,22.10
2018-03-29T21:15:20.087Z,23.77
2018-03-29T21:17:48.476Z,22.15
2018-03-29T21:20:17.276Z,25.15
2018-03-29T21:22:46.189Z,21.85
2018-03-29T21:25:14.755Z,27.73
2018-03-29T21:27:43.234Z,24.80
2018-03-29T21:30:11.687Z,24.90
2018-03-29T21:32:40.084Z,23.23
2018-03-29T21:35:08.515Z,24.12
2018-03-29T21:37:37.018Z,23.90
2018-03-29T21:40:05.445Z,23.08
2018-03-29T21:42:33.836Z,26.80
2018-03-29T21:45:02.264Z,24.75
2018-03-29T21:47:30.645Z,26.17
2018-03-29T21:49:59.035Z,22.60
2018-03-29T21:52:27.502Z,25.73
2018-03-29T21:54:56.209Z,24.67
2018-03-29T21:57:25.020Z,25.08
2018-03-29T21:59:53.560Z,25.02
2018-03-29T22:02:22.165Z,26.52
2018-03-29T22:04:50.620Z,25.52
2018-03-29T22:07:19.217Z,26.17
2018-03-29T22:09:47.702Z,26.20
2018-03-29T22:12:16.109Z,33.45
2018-03-29T22:14:44.604Z,28.35
2018-03-29T22:17:13.074Z,26.10
2018-03-29T22:19:41.467Z,28.27
2018-03-29T22:22:09.976Z,26.58
2018-03-29T22:24:38.338Z,23.50
2018-03-29T22:27:06.713Z,27.05
2018-03-29T22:29:35.276Z,24.17
2018-03-29T22:32:03.637Z,24.87
2018-03-29T22:34:32.004Z,26.00
2018-03-29T22:37:00.404Z,27.37
2018-03-29T22:39:28.868Z,27.62
2018-03-29T22:41:57.271Z,28.98
2018-03-29T22:44:25.812Z,27.75
2018-03-29T22:46:54.176Z,28.40
2018-03-29T22:49:22.573Z,28.70
2018-03-29T22:51:51.044Z,27.73
2018-03-29T22:54:19.426Z,25.50
2018-03-29T22:56:47.840Z,25.20
2018-03-29T22:59:16.308Z,29.23
2018-03-29T23:01:44.692Z,26.87
2018-03-29T23:04:13.060Z,25.55
2018-03-29T23:06:41.636Z,29.30
2018-03-29T23:09:10.053Z,27.25
2018-03-29T23:11:38.488Z,25.45
2018-03-29T23:14:06.997Z,28.80
2018-03-29T23:16:39.007Z,28.10
2018-03-29T23:19:09.318Z,34.45
2018-03-29T23:21:37.715Z,27.40
2018-03-29T23:24:06.104Z,31.20
2018-03-29T23:26:34.647Z,31.92
2018-03-29T23:29:03.027Z,33.97
2018-03-29T23:31:31.380Z,30.30
2018-03-29T23:33:59.910Z,27.10
2018-03-29T23:36:28.345Z,27.60
2018-03-29T23:38:56.733Z,27.67
2018-03-29T23:41:25.372Z,28.60
2018-03-29T23:43:53.892Z,28.65
2018-03-29T23:46:22.292Z,27.90
2018-03-29T23:48:50.743Z,29.40
2018-03-29T23:51:19.233Z,24.58
2018-03-29T23:53:47.663Z,25.15
2018-03-29T23:56:16.100Z,24.77
2018-03-29T23:58:44.466Z,26.05
